Time;durP1;ratioP1;P1;durP2;ratioP2;P2;SDS_P1;SDS_P2;PMS_P1;PMS_P2;Temp;Humidity;BMP_temperature;BMP_pressure;BME280_temperature;BME280_humidity;BME280_pressure;Samples;Min_cycle;Max_cycle;Signal;HPM_P1;HPM_P2
2023/01/13 00:01:15;;;;;;;91.70;56.72;;;102.50;2227.20;;;;;;5090766;28;20476;-64
2023/01/13 00:03:42;;;;;;;77.53;48.13;;;102.40;2227.20;;;;;;5090687;28;20031;-66
2023/01/13 00:06:13;;;;;;;91.10;52.13;;;77.70;2227.20;;;;;;5090579;28;20047;-65
2023/01/13 00:08:39;;;;;;;104.25;55.10;;;77.70;2227.20;;;;;;5090514;28;20415;-64
2023/01/13 00:11:05;;;;;;;102.43;59.08;;;77.60;2227.20;;;;;;5090494;28;20077;-64
2023/01/13 00:13:32;;;;;;;99.00;57.90;;;77.60;2227.20;;;;;;5090457;28;20026;-65
2023/01/13 00:15:59;;;;;;;98.68;57.53;;;77.40;2227.20;;;;;;5090416;28;20024;-66
2023/01/13 00:18:26;;;;;;;96.78;52.85;;;77.40;2227.20;;;;;;5090611;28;20016;-63
2023/01/13 00:21:03;;;;;;;73.70;44.22;;;77.20;2227.20;;;;;;5090442;28;20031;-64
2023/01/13 00:23:31;;;;;;;71.78;42.00;;;77.00;2227.20;;;;;;5090181;28;20016;-64
2023/01/13 00:25:59;;;;;;;58.95;38.15;;;76.80;2176.00;;;;;;5090354;28;20092;-63
2023/01/13 00:28:25;;;;;;;73.60;43.15;;;52.10;2227.20;;;;;;5090320;28;20017;-64
2023/01/13 00:30:51;;;;;;;79.05;46.25;;;51.90;2227.20;;;;;;5090170;28;20518;-64
2023/01/13 00:33:17;;;;;;;73.80;45.25;;;51.90;2227.20;;;;;;5090145;28;20024;-63
2023/01/13 00:35:42;;;;;;;146.55;84.40;;;76.80;2227.20;;;;;;5089783;28;20032;-64
2023/01/13 00:38:08;;;;;;;60.25;34.97;;;52.00;2227.20;;;;;;5090181;28;20031;-64
2023/01/13 00:40:34;;;;;;;52.80;32.92;;;52.10;2124.80;;;;;;5090170;28;20541;-63
2023/01/13 00:45:44;;;;;;;40.92;24.67;;;77.00;2227.20;;;;;;5090222;28;20177;-64
2023/01/13 00:48:10;;;;;;;42.67;24.52;;;77.10;2227.20;;;;;;5090008;28;20127;-63
2023/01/13 00:50:35;;;;;;;38.28;24.08;;;77.20;2227.20;;;;;;5090240;28;20032;-64
2023/01/13 00:53:01;;;;;;;103.93;55.00;;;77.20;2227.20;;;;;;5089828;28;20024;-64
2023/01/13 00:55:29;;;;;;;55.00;32.80;;;77.30;2227.20;;;;;;5090059;28;20032;-65
2023/01/13 00:58:02;;;;;;;74.20;41.53;;;77.30;2227.20;;;;;;5089925;28;20021;-65
2023/01/13 01:00:31;;;;;;;51.38;32.63;;;77.20;2227.20;;;;;;5090134;28;20637;-64
2023/01/13 01:02:57;;;;;;;40.92;23.23;;;77.20;2227.20;;;;;;5090075;28;20032;-64
2023/01/13 01:05:22;;;;;;;88.82;48.15;;;76.90;2227.20;;;;;;5089452;28;20036;-65
2023/01/13 01:07:48;;;;;;;151.55;85.80;;;76.80;2227.20;;;;;;5089929;28;20112;-64
2023/01/13 01:10:14;;;;;;;153.07;79.07;;;76.80;2227.20;;;;;;5089912;28;20039;-64
2023/01/13 01:12:40;;;;;;;73.07;41.67;;;77.00;2227.20;;;;;;5089857;28;20106;-64
2023/01/13 01:15:08;;;;;;;46.75;27.17;;;77.00;2227.20;;;;;;5089782;28;20474;-63
2023/01/13 01:17:35;;;;;;;48.17;30.58;;;52.00;2227.20;;;;;;5089980;28;20117;-64
2023/01/13 01:20:03;;;;;;;63.55;37.67;;;51.80;2227.20;;;;;;5089736;28;20453;-64
2023/01/13 01:22:28;;;;;;;46.33;26.08;;;51.60;2227.20;;;;;;5089843;28;20432;-64
2023/01/13 01:24:54;;;;;;;35.00;19.70;;;51.60;2227.20;;;;;;5089976;28;20027;-64
2023/01/13 01:27:20;;;;;;;53.80;28.40;;;51.50;2227.20;;;;;;5089755;28;20084;-63
2023/01/13 01:29:45;;;;;;;46.17;25.65;;;51.60;2227.20;;;;;;5089826;28;20032;-64
2023/01/13 01:32:11;;;;;;;36.17;20.83;;;51.80;2227.20;;;;;;5089795;28;20393;-65
2023/01/13 01:34:38;;;;;;;39.08;23.83;;;51.90;2227.20;;;;;;5089716;28;20039;-64
2023/01/13 01:37:04;;;;;;;40.50;27.63;;;52.10;2227.20;;;;;;5089702;28;20028;-65
2023/01/13 01:39:30;;;;;;;44.17;28.75;;;52.10;2176.00;;;;;;5089468;28;20028;-66
2023/01/13 01:44:57;;;;;;;79.18;41.70;;;76.80;2227.20;;;;;;5090264;28;20031;-64
2023/01/13 01:47:25;;;;;;;73.53;39.53;;;76.80;2227.20;;;;;;5089482;28;20409;-64
2023/01/13 01:49:51;;;;;;;52.47;29.42;;;76.80;2227.20;;;;;;5092881;28;20031;-65
2023/01/13 01:52:23;;;;;;;53.72;28.00;;;76.90;2227.20;;;;;;5093030;28;20070;-65
2023/01/13 01:54:51;;;;;;;65.15;33.72;;;76.90;2227.20;;;;;;5092861;28;20093;-64
2023/01/13 01:57:25;;;;;;;45.55;23.52;;;76.90;2227.20;;;;;;5092855;28;20024;-64
2023/01/13 01:59:52;;;;;;;28.38;17.98;;;77.00;2227.20;;;;;;5092794;28;20043;-64
2023/01/13 02:02:18;;;;;;;24.00;15.35;;;76.80;2227.20;;;;;;5092961;28;20531;-64
2023/01/13 02:04:49;;;;;;;30.45;16.00;;;52.10;2227.20;;;;;;5093034;28;20023;-63
2023/01/13 02:07:24;;;;;;;28.65;17.13;;;52.10;2227.20;;;;;;5093029;28;20481;-63
2023/01/13 02:09:52;;;;;;;57.85;32.05;;;51.80;2227.20;;;;;;5092626;28;20111;-63
2023/01/13 02:12:31;;;;;;;652.80;293.80;;;51.60;2227.20;;;;;;5092513;28;20116;-64
2023/01/13 02:15:05;;;;;;;272.27;100.78;;;51.80;2150.40;;;;;;5092972;28;20024;-63
2023/01/13 02:17:50;;;;;;;80.32;35.45;;;51.90;2227.20;;;;;;5092411;28;20531;-63
2023/01/13 02:20:42;;;;;;;129.45;48.50;;;52.00;2227.20;;;;;;5010335;28;20124;-63
2023/01/13 02:26:40;;;;;;;323.55;122.43;;;76.90;2227.20;;;;;;5010430;28;20076;-63
2023/01/13 02:32:19;;;;;;;70.18;30.38;;;76.90;2227.20;;;;;;5010247;28;20085;-64
2023/01/13 02:34:55;;;;;;;45.78;28.48;;;76.90;2227.20;;;;;;5010204;28;20026;-64
2023/01/13 02:37:30;;;;;;;32.75;20.85;;;76.80;2227.20;;;;;;5009922;28;20038;-64
2023/01/13 02:40:06;;;;;;;40.33;24.30;;;52.10;2227.20;;;;;;5010015;28;20041;-64
2023/01/13 02:45:32;;;;;;;67.50;34.78;;;76.90;2227.20;;;;;;5009647;28;20581;-63
2023/01/13 02:48:02;;;;;;;44.75;25.15;;;76.90;2227.20;;;;;;5009588;28;20046;-65
2023/01/13 02:50:44;;;;;;;72.55;38.63;;;52.10;2227.20;;;;;;5009526;28;20038;-65
2023/01/13 02:53:22;;;;;;;50.60;27.63;;;52.10;2227.20;;;;;;5009905;28;20037;-64
2023/01/13 02:55:52;;;;;;;48.58;23.98;;;51.90;2227.20;;;;;;5009653;28;20030;-65
2023/01/13 02:58:24;;;;;;;29.33;21.73;;;51.80;2227.20;;;;;;5081253;28;20101;-65
2023/01/13 03:00:49;;;;;;;30.48;19.92;;;51.90;2227.20;;;;;;5090279;28;20035;-65
2023/01/13 03:03:15;;;;;;;23.70;14.52;;;51.90;2227.20;;;;;;5091884;28;20028;-64
2023/01/13 03:05:44;;;;;;;29.55;18.00;;;52.00;2227.20;;;;;;5091624;28;20036;-66
2023/01/13 03:08:31;;;;;;;28.98;15.43;;;52.10;2227.20;;;;;;5091656;28;20109;-65
2023/01/13 03:11:10;;;;;;;31.25;17.65;;;52.00;2227.20;;;;;;5091524;28;20055;-65
2023/01/13 03:13:35;;;;;;;35.95;20.77;;;52.00;2227.20;;;;;;5091317;28;20381;-64
2023/01/13 03:16:19;;;;;;;31.10;18.63;;;51.90;2227.20;;;;;;5091206;28;20111;-64
2023/01/13 03:18:54;;;;;;;26.60;17.98;;;51.90;2227.20;;;;;;5091508;28;20477;-65
2023/01/13 03:21:24;;;;;;;24.63;16.73;;;51.90;2227.20;;;;;;5091142;28;20032;-65
2023/01/13 03:24:16;;;;;;;30.52;18.75;;;51.90;2227.20;;;;;;5091175;28;20173;-65
2023/01/13 03:26:42;;;;;;;55.05;32.42;;;51.90;2227.20;;;;;;5090864;28;20043;-65
2023/01/13 03:29:17;;;;;;;42.05;24.45;;;51.90;2227.20;;;;;;5091055;28;20020;-65
2023/01/13 03:31:51;;;;;;;35.13;20.23;;;51.90;2227.20;;;;;;5091133;28;20397;-64
2023/01/13 03:34:21;;;;;;;31.02;18.35;;;52.00;2227.20;;;;;;5091195;28;20050;-64
2023/01/13 03:36:51;;;;;;;26.60;16.38;;;52.00;2227.20;;;;;;5090549;28;20028;-64
2023/01/13 03:39:26;;;;;;;32.00;18.27;;;51.90;2227.20;;;;;;5090800;28;20031;-65
2023/01/13 03:41:58;;;;;;;35.78;18.25;;;51.90;2227.20;;;;;;5090539;28;20085;-63
2023/01/13 03:44:54;;;;;;;54.47;31.83;;;51.90;2227.20;;;;;;5090876;28;20020;-64
2023/01/13 03:47:19;;;;;;;34.53;21.08;;;52.00;2227.20;;;;;;5008397;28;20057;-63
2023/01/13 03:49:59;;;;;;;36.83;20.88;;;52.10;2227.20;;;;;;5008864;28;20034;-63
2023/01/13 03:52:33;;;;;;;44.90;26.42;;;52.00;2227.20;;;;;;5008795;28;20415;-64
2023/01/13 03:55:17;;;;;;;38.33;22.83;;;51.90;2227.20;;;;;;5008563;28;20101;-63
2023/01/13 03:57:53;;;;;;;37.55;22.63;;;51.90;2227.20;;;;;;5008471;28;20542;-63
2023/01/13 04:00:23;;;;;;;38.97;23.27;;;51.90;2227.20;;;;;;5008427;28;20026;-63
2023/01/13 04:02:56;;;;;;;45.90;27.73;;;51.90;2227.20;;;;;;5008384;28;20040;-63
2023/01/13 04:05:22;;;;;;;65.18;39.63;;;51.80;2227.20;;;;;;5008192;28;20050;-63
2023/01/13 04:07:57;;;;;;;58.83;36.78;;;51.80;2227.20;;;;;;5008390;28;20160;-65
2023/01/13 04:10:38;;;;;;;69.40;46.05;;;51.80;2227.20;;;;;;5008022;28;20104;-64
2023/01/13 04:13:09;;;;;;;63.70;38.33;;;51.80;2227.20;;;;;;5008477;28;20033;-61
2023/01/13 04:15:38;;;;;;;77.43;47.33;;;51.80;2227.20;;;;;;5008231;28;20145;-64
2023/01/13 04:18:21;;;;;;;78.00;46.38;;;51.80;2227.20;;;;;;5008508;28;20038;-63
2023/01/13 04:20:49;;;;;;;82.22;44.65;;;51.80;2227.20;;;;;;5008402;28;20036;-63
2023/01/13 04:23:16;;;;;;;97.72;50.75;;;51.80;2227.20;;;;;;5033909;28;20110;-64
2023/01/13 04:25:43;;;;;;;76.88;43.35;;;51.80;2227.20;;;;;;5090376;28;20114;-63
2023/01/13 04:28:10;;;;;;;121.25;63.78;;;51.70;2227.20;;;;;;5090249;28;20020;-64
2023/01/13 04:30:37;;;;;;;101.75;57.67;;;51.80;2227.20;;;;;;5090270;28;20028;-63
2023/01/13 04:33:04;;;;;;;86.18;51.55;;;51.70;2227.20;;;;;;5090024;28;20024;-64
2023/01/13 04:35:30;;;;;;;89.50;51.58;;;51.70;2227.20;;;;;;5090236;28;20035;-65
2023/01/13 04:37:56;;;;;;;85.05;53.33;;;51.60;2227.20;;;;;;5090252;28;20426;-64
2023/01/13 04:40:22;;;;;;;80.45;46.97;;;51.60;2227.20;;;;;;5089716;28;20071;-65
2023/01/13 04:42:47;;;;;;;79.68;49.90;;;51.60;2227.20;;;;;;5090134;28;20038;-63
2023/01/13 04:45:13;;;;;;;70.22;44.53;;;51.40;2227.20;;;;;;5089870;28;20050;-63
2023/01/13 04:47:40;;;;;;;85.68;49.28;;;51.50;2227.20;;;;;;5089867;28;20109;-64
2023/01/13 04:50:07;;;;;;;83.57;47.33;;;51.50;2227.20;;;;;;5090138;28;20107;-63
2023/01/13 04:52:33;;;;;;;54.45;35.50;;;51.80;2227.20;;;;;;5090026;28;20031;-63
2023/01/13 04:54:58;;;;;;;60.10;39.63;;;51.40;2227.20;;;;;;5089756;28;20020;-63
2023/01/13 04:57:24;;;;;;;66.53;34.80;;;51.20;2227.20;;;;;;5090024;28;20378;-63
2023/01/13 04:59:50;;;;;;;85.07;44.55;;;51.20;2227.20;;;;;;5089720;28;20024;-63
2023/01/13 05:02:18;;;;;;;92.80;45.63;;;51.20;2227.20;;;;;;5089794;28;20377;-63
2023/01/13 05:04:47;;;;;;;105.90;53.50;;;51.20;2227.20;;;;;;5089851;28;20036;-62
2023/01/13 05:07:14;;;;;;;71.32;42.92;;;51.20;2227.20;;;;;;5089987;28;20059;-63
2023/01/13 05:09:40;;;;;;;134.23;77.40;;;51.30;2227.20;;;;;;5089581;28;20034;-63
2023/01/13 05:17:36;;;;;;;39.13;22.95;;;51.20;2227.20;;;;;;5089912;28;20067;-63
2023/01/13 05:20:02;;;;;;;65.63;38.72;;;26.50;2201.60;;;;;;5089643;28;20060;-63
2023/01/13 05:25:21;;;;;;;35.03;20.10;;;51.20;2227.20;;;;;;5093840;28;20035;-63
2023/01/13 05:27:52;;;;;;;46.63;26.90;;;26.40;2201.60;;;;;;5093638;28;20065;-62
2023/01/13 05:30:23;;;;;;;42.30;24.33;;;26.40;2201.60;;;;;;5093339;28;20024;-63
2023/01/13 05:32:49;;;;;;;44.92;27.13;;;26.20;2201.60;;;;;;5093280;28;20114;-63
2023/01/13 05:35:15;;;;;;;52.20;31.35;;;26.00;2201.60;;;;;;5093546;28;20110;-63
2023/01/13 05:37:45;;;;;;;70.53;36.60;;;25.90;2201.60;;;;;;5093432;28;20024;-63
2023/01/13 05:43:20;;;;;;;46.90;27.85;;;26.20;2201.60;;;;;;5093484;28;20034;-63
2023/01/13 05:45:49;;;;;;;51.20;28.13;;;26.30;2201.60;;;;;;5093032;28;20040;-63
2023/01/13 05:48:16;;;;;;;57.42;31.92;;;26.10;2201.60;;;;;;5093189;28;20052;-63
2023/01/13 05:50:42;;;;;;;136.93;71.93;;;25.90;2150.40;;;;;;5092964;28;20118;-63
2023/01/13 05:53:08;;;;;;;255.23;124.57;;;26.00;2201.60;;;;;;5093293;28;20570;-63
2023/01/13 05:55:33;;;;;;;202.05;94.18;;;26.30;2201.60;;;;;;5093064;28;20428;-64
2023/01/13 05:57:59;;;;;;;165.48;76.68;;;26.50;2201.60;;;;;;5092976;28;20077;-63
2023/01/13 06:00:25;;;;;;;52.88;25.95;;;51.20;2227.20;;;;;;5092976;28;20028;-63
2023/01/13 06:02:51;;;;;;;36.38;17.70;;;51.30;2227.20;;;;;;5092766;28;20462;-63
2023/01/13 06:05:16;;;;;;;161.95;93.10;;;51.20;2227.20;;;;;;5092833;28;20359;-63
2023/01/13 06:07:42;;;;;;;54.17;28.42;;;26.50;2201.60;;;;;;5093782;28;20039;-63
2023/01/13 06:10:08;;;;;;;35.92;18.67;;;26.40;2201.60;;;;;;5092955;28;20028;-63
2023/01/13 06:12:34;;;;;;;33.00;28.80;;;26.20;2201.60;;;;;;5093588;28;20024;-64
2023/01/13 06:15:00;;;;;;;20.08;12.20;;;26.30;2201.60;;;;;;5094400;28;20071;-64
2023/01/13 06:17:26;;;;;;;20.55;12.57;;;26.40;2201.60;;;;;;5094715;28;20024;-65
2023/01/13 06:19:51;;;;;;;34.40;21.95;;;26.50;2201.60;;;;;;5095926;28;20024;-63
2023/01/13 06:22:34;;;;;;;166.23;74.18;;;26.40;1945.60;;;;;;5096596;28;20028;-65
2023/01/13 06:25:00;;;;;;;187.48;79.32;;;26.50;2201.60;;;;;;5095648;28;20016;-64
2023/01/13 06:27:28;;;;;;;22.95;15.57;;;26.40;2201.60;;;;;;5092483;28;20093;-64
2023/01/13 06:29:55;;;;;;;51.20;25.00;;;26.30;1817.60;;;;;;5092484;28;20028;-64
2023/01/13 06:32:29;;;;;;;33.63;18.60;;;26.30;2201.60;;;;;;5092258;28;20024;-64
2023/01/13 06:35:02;;;;;;;26.13;15.95;;;26.50;2201.60;;;;;;5092059;28;20043;-64
2023/01/13 06:37:29;;;;;;;35.17;22.48;;;26.40;2201.60;;;;;;5092399;28;20036;-64
2023/01/13 06:39:59;;;;;;;35.20;22.95;;;26.40;2201.60;;;;;;5092112;28;20493;-64
2023/01/13 06:45:12;;;;;;;44.08;26.38;;;26.30;2201.60;;;;;;5092185;28;20093;-64
2023/01/13 06:47:38;;;;;;;31.08;18.30;;;26.50;2201.60;;;;;;5091915;28;20058;-64
2023/01/13 06:50:04;;;;;;;36.67;19.25;;;26.50;2201.60;;;;;;5092108;28;20028;-63
2023/01/13 06:52:30;;;;;;;32.70;20.60;;;51.20;2227.20;;;;;;5091937;28;20028;-64
2023/01/13 06:54:56;;;;;;;35.60;22.80;;;51.20;2227.20;;;;;;5092031;28;20579;-64
2023/01/13 06:57:22;;;;;;;39.78;23.02;;;51.30;2227.20;;;;;;5091583;28;20055;-64
2023/01/13 06:59:48;;;;;;;35.60;21.65;;;51.40;2227.20;;;;;;5091738;28;20099;-64
2023/01/13 07:02:14;;;;;;;33.53;24.75;;;51.40;2227.20;;;;;;5091406;28;20117;-62
2023/01/13 07:04:39;;;;;;;29.17;18.40;;;51.50;2227.20;;;;;;5091835;28;20035;-64
2023/01/13 07:07:06;;;;;;;32.35;20.90;;;51.50;2227.20;;;;;;5091803;28;20035;-63
2023/01/13 07:09:33;;;;;;;124.22;70.50;;;51.60;2227.20;;;;;;5091639;28;20089;-63
2023/01/13 07:11:58;;;;;;;104.70;66.68;;;51.70;2227.20;;;;;;5091670;28;20024;-64
2023/01/13 07:17:09;;;;;;;89.13;54.40;;;51.80;2227.20;;;;;;5091429;28;20077;-62
2023/01/13 07:19:35;;;;;;;42.67;25.73;;;51.80;2227.20;;;;;;5091470;28;20024;-65
2023/01/13 07:22:00;;;;;;;111.10;49.33;;;51.70;2227.20;;;;;;5091469;28;20030;-60
2023/01/13 07:24:26;;;;;;;221.57;107.25;;;51.90;2227.20;;;;;;5091460;28;20052;-60
2023/01/13 07:26:52;;;;;;;60.70;30.45;;;52.00;2227.20;;;;;;5091045;28;20043;-59
2023/01/13 07:29:18;;;;;;;49.78;28.63;;;76.80;2227.20;;;;;;5091107;28;20017;-59
2023/01/13 07:31:43;;;;;;;57.83;36.05;;;52.10;2227.20;;;;;;5091210;28;20092;-59
2023/01/13 07:34:09;;;;;;;108.72;70.88;;;76.90;2227.20;;;;;;5091277;28;20457;-60
2023/01/13 07:36:35;;;;;;;75.38;46.28;;;76.90;2227.20;;;;;;5091083;28;20027;-59
2023/01/13 07:39:01;;;;;;;67.07;43.25;;;76.90;2227.20;;;;;;5090874;28;20172;-59
2023/01/13 07:44:11;;;;;;;159.88;106.07;;;77.10;2227.20;;;;;;5091047;28;20167;-60
2023/01/13 07:46:38;;;;;;;78.82;43.08;;;77.20;2227.20;;;;;;5090010;28;20048;-59
2023/01/13 07:49:04;;;;;;;139.20;84.88;;;77.30;2227.20;;;;;;5091059;28;20031;-60
2023/01/13 07:51:30;;;;;;;200.07;108.57;;;77.40;2227.20;;;;;;5090755;28;20024;-59
2023/01/13 07:53:56;;;;;;;130.95;79.78;;;77.40;2227.20;;;;;;5090961;28;20031;-59
2023/01/13 07:56:21;;;;;;;112.90;71.03;;;77.50;2227.20;;;;;;5090728;28;20020;-59
2023/01/13 07:58:49;;;;;;;87.35;58.60;;;77.60;2227.20;;;;;;5090814;28;20115;-60
2023/01/13 08:01:16;;;;;;;82.43;54.47;;;77.60;2227.20;;;;;;5090667;28;20084;-59
2023/01/13 08:03:43;;;;;;;65.88;44.97;;;77.70;2227.20;;;;;;5090512;28;20024;-60
2023/01/13 08:06:10;;;;;;;38.65;26.40;;;77.70;2227.20;;;;;;5090619;28;20040;-59
2023/01/13 08:08:36;;;;;;;37.55;26.88;;;77.70;2227.20;;;;;;5090571;28;20060;-59
2023/01/13 08:11:04;;;;;;;48.42;30.98;;;77.70;2227.20;;;;;;5090453;28;20562;-59
2023/01/13 08:13:30;;;;;;;43.10;27.55;;;102.40;2227.20;;;;;;5090456;28;20064;-59
2023/01/13 08:16:01;;;;;;;45.17;24.90;;;102.60;2227.20;;;;;;5090437;28;20023;-59
2023/01/13 08:18:26;;;;;;;35.47;22.23;;;102.90;2227.20;;;;;;5090675;28;20489;-60
2023/01/13 08:20:52;;;;;;;27.95;19.33;;;128.40;2252.80;;;;;;5090296;28;20065;-59
2023/01/13 08:23:19;;;;;;;25.83;16.75;;;154.50;2252.80;;;;;;5090373;28;20485;-60
2023/01/13 08:25:45;;;;;;;19.73;15.05;;;205.40;2252.80;;;;;;5090580;28;20036;-59
2023/01/13 08:28:11;;;;;;;20.95;15.80;;;256.20;2252.80;;;;;;5090394;28;20031;-59
2023/01/13 08:30:37;;;;;;;34.95;19.67;;;282.40;2278.40;;;;;;5090581;28;20020;-60
2023/01/13 08:33:06;;;;;;;102.95;91.25;;;332.90;2278.40;;;;;;5090452;28;20021;-60
2023/01/13 08:35:34;;;;;;;57.30;48.45;;;358.60;2048.00;;;;;;5089838;28;20470;-60
2023/01/13 08:37:59;;;;;;;56.20;49.58;;;358.80;1996.80;;;;;;5089751;28;20115;-60
2023/01/13 08:40:25;;;;;;;80.82;61.88;;;384.50;1920.00;;;;;;5089986;28;20154;-59
2023/01/13 08:42:52;;;;;;;82.57;64.68;;;384.10;1894.40;;;;;;5089891;28;20028;-60
2023/01/13 08:45:19;;;;;;;84.57;71.80;;;307.90;2073.60;;;;;;5089759;28;20028;-60
2023/01/13 08:47:45;;;;;;;56.38;40.75;;;281.70;2227.20;;;;;;5089764;28;20048;-60
2023/01/13 08:50:11;;;;;;;63.20;44.35;;;231.30;2252.80;;;;;;5090162;28;20024;-59
2023/01/13 08:52:37;;;;;;;67.68;49.15;;;205.70;2252.80;;;;;;5090226;28;20021;-59
2023/01/13 08:55:03;;;;;;;59.03;46.67;;;230.90;2252.80;;;;;;5089757;28;20031;-60
2023/01/13 08:57:29;;;;;;;73.80;56.65;;;256.90;2252.80;;;;;;5091606;28;20390;-60
2023/01/13 08:59:54;;;;;;;99.60;79.40;;;307.20;2304.00;;;;;;5094089;28;20032;-60
2023/01/13 09:02:22;;;;;;;109.30;88.43;;;332.90;2176.00;;;;;;5093798;28;20097;-60
2023/01/13 09:04:48;;;;;;;104.32;86.45;;;333.00;2329.60;;;;;;5093674;28;20028;-61
2023/01/13 09:07:14;;;;;;;91.18;77.13;;;333.50;2099.20;;;;;;5092264;28;20421;-60
2023/01/13 09:09:41;;;;;;;90.60;77.68;;;384.10;1996.80;;;;;;5093883;28;20123;-61
2023/01/13 09:14:53;;;;;;;107.45;95.70;;;409.80;1868.80;;;;;;5094009;28;20492;-60
2023/01/13 09:17:19;;;;;;;107.45;93.10;;;436.10;1766.40;;;;;;5093408;28;20114;-61
2023/01/13 09:19:45;;;;;;;108.95;96.70;;;461.40;1689.60;;;;;;5093818;28;20110;-59
2023/01/13 09:22:16;;;;;;;124.30;109.68;;;461.60;1638.40;;;;;;5093743;28;20101;-61
2023/01/13 09:24:42;;;;;;;109.03;97.40;;;461.10;1664.00;;;;;;5093150;28;20044;-62
2023/01/13 09:27:10;;;;;;;128.43;114.40;;;461.50;1638.40;;;;;;5093258;28;20043;-62
2023/01/13 09:29:36;;;;;;;109.40;97.32;;;435.40;1715.20;;;;;;5093759;28;20077;-61
2023/01/13 09:32:02;;;;;;;110.32;98.28;;;410.00;1792.00;;;;;;5093322;28;20074;-61
2023/01/13 09:37:11;;;;;;;118.18;101.65;;;359.00;1920.00;;;;;;5093620;28;20402;-61
2023/01/13 09:39:38;;;;;;;120.88;106.85;;;384.70;1868.80;;;;;;5093245;28;20031;-60
2023/01/13 09:45:10;;;;;;;121.88;106.93;;;384.20;1894.40;;;;;;5092570;28;20089;-61
2023/01/13 09:47:55;;;;;;;135.18;115.18;;;359.10;1945.60;;;;;;5092614;28;20052;-60
2023/01/13 09:50:33;;;;;;;142.75;125.22;;;358.80;1996.80;;;;;;5092952;28;20027;-60
2023/01/13 09:52:59;;;;;;;152.88;127.03;;;358.50;2022.40;;;;;;5092711;28;20373;-61
2023/01/13 09:55:36;;;;;;;137.80;116.68;;;308.10;2099.20;;;;;;5093032;28;20103;-61
2023/01/13 09:58:14;;;;;;;160.52;125.10;;;307.60;2176.00;;;;;;5091167;28;20038;-59
2023/01/13 10:00:52;;;;;;;127.25;100.65;;;282.30;2278.40;;;;;;5088752;28;20381;-58
2023/01/13 10:03:30;;;;;;;107.38;84.40;;;256.90;2252.80;;;;;;5088855;28;20028;-60
2023/01/13 10:06:03;;;;;;;99.57;76.22;;;231.30;2252.80;;;;;;5090974;28;20067;-61
2023/01/13 10:08:29;;;;;;;;;;;230.80;2252.80;;;;;;5090763;28;20048;-61
2023/01/13 10:13:12;;;;;;;101.15;72.45;;;230.60;2252.80;;;;;;5091237;28;19930;-60
2023/01/13 10:13:49;;;;;;;111.85;79.15;;;230.70;2252.80;;;;;;5090010;28;20127;-59
2023/01/13 10:16:41;;;;;;;103.55;75.95;;;230.40;2252.80;;;;;;5091316;28;20056;-60
2023/01/13 10:19:28;;;;;;;77.95;57.58;;;230.40;2252.80;;;;;;5091003;28;20059;-60
2023/01/13 10:21:54;;;;;;;72.60;57.88;;;205.60;2252.80;;;;;;5090925;28;20028;-59
2023/01/13 10:24:41;;;;;;;74.00;51.40;;;205.60;2252.80;;;;;;5090832;28;20031;-59
2023/01/13 10:27:18;;;;;;;61.70;46.78;;;205.40;2252.80;;;;;;5090479;28;20054;-58
2023/01/13 10:29:44;;;;;;;63.13;42.13;;;205.40;2252.80;;;;;;5090878;28;20141;-60
2023/01/13 10:32:10;;;;;;;60.22;44.55;;;205.20;2252.80;;;;;;5090415;28;20133;-60
2023/01/13 10:34:49;;;;;;;76.85;54.38;;;205.40;2252.80;;;;;;5089714;28;20027;-59
2023/01/13 10:37:26;;;;;;;89.95;63.45;;;205.30;2252.80;;;;;;5088639;28;20035;-59
2023/01/13 10:39:59;;;;;;;81.60;59.03;;;205.10;2252.80;;;;;;5090724;28;20039;-60
2023/01/13 10:42:25;;;;;;;80.93;57.58;;;205.10;2252.80;;;;;;5089593;28;20039;-59
2023/01/13 10:44:50;;;;;;;83.68;58.00;;;205.10;2252.80;;;;;;5089285;28;20024;-60
2023/01/13 10:47:26;;;;;;;92.05;68.47;;;205.20;2252.80;;;;;;5089243;28;20051;-59
2023/01/13 10:50:22;;;;;;;85.90;59.28;;;205.30;2252.80;;;;;;5088479;28;20028;-60
2023/01/13 10:53:15;;;;;;;81.07;59.00;;;205.30;2252.80;;;;;;5089160;28;20603;-60
2023/01/13 10:55:41;;;;;;;68.28;50.90;;;205.60;2252.80;;;;;;5088374;28;20016;-57
2023/01/13 10:58:18;;;;;;;76.63;54.38;;;205.30;2252.80;;;;;;5089240;28;20343;-59
2023/01/13 11:00:45;;;;;;;80.60;60.25;;;205.20;2252.80;;;;;;5087080;28;20084;-60
2023/01/13 11:03:13;;;;;;;70.97;47.38;;;205.40;2252.80;;;;;;5089058;28;20073;-60
2023/01/13 11:05:39;;;;;;;62.22;44.95;;;205.30;2252.80;;;;;;5087649;28;20119;-60
2023/01/13 11:08:16;;;;;;;75.05;53.38;;;205.30;2252.80;;;;;;5088760;28;20099;-60
2023/01/13 11:10:48;;;;;;;67.22;46.42;;;205.30;2252.80;;;;;;5087926;28;20093;-59
2023/01/13 11:14:31;;;;;;;66.63;44.45;;;205.50;2252.80;;;;;;5088695;28;20460;-60
2023/01/13 11:16:24;;;;;;;73.68;53.58;;;205.60;2252.80;;;;;;5088372;28;20093;-60
2023/01/13 11:19:11;;;;;;;56.95;37.08;;;205.60;2252.80;;;;;;5087968;28;20045;-60
2023/01/13 11:21:52;;;;;;;59.75;41.58;;;205.50;2252.80;;;;;;5086410;28;20020;-60
2023/01/13 11:24:21;;;;;;;67.03;46.10;;;205.70;2252.80;;;;;;5088801;28;20048;-59
2023/01/13 11:27:14;;;;;;;58.42;42.60;;;205.70;2252.80;;;;;;5088561;28;20111;-59
2023/01/13 11:29:53;;;;;;;80.13;50.80;;;205.60;2252.80;;;;;;5019504;28;20116;-61
2023/01/13 11:32:21;;;;;;;81.22;53.03;;;205.70;2252.80;;;;;;5018316;28;20033;-59
2023/01/13 11:34:52;;;;;;;66.22;45.42;;;230.50;2252.80;;;;;;5017960;28;20030;-59
2023/01/13 11:37:31;;;;;;;65.47;44.83;;;230.60;2252.80;;;;;;5013785;28;20028;-60
2023/01/13 11:40:04;;;;;;;74.93;48.25;;;230.60;2252.80;;;;;;5018015;28;20403;-59
2023/01/13 11:42:52;;;;;;;76.65;50.63;;;230.60;2252.80;;;;;;5114526;27;20109;-58
2023/01/13 11:45:30;;;;;;;69.90;46.35;;;230.70;2252.80;;;;;;5103773;28;20015;-60
2023/01/13 11:47:59;;;;;;;63.38;41.05;;;230.90;2252.80;;;;;;5090956;28;20025;-60
2023/01/13 11:50:47;;;;;;;56.17;34.40;;;231.00;2252.80;;;;;;5085058;28;20025;-59
2023/01/13 11:53:46;;;;;;;45.53;29.38;;;231.00;2252.80;;;;;;5083892;28;20139;-60
2023/01/13 11:56:45;;;;;;;36.33;24.75;;;231.10;2252.80;;;;;;5083877;28;20032;-60
2023/01/13 11:59:35;;;;;;;41.33;27.75;;;231.10;2252.80;;;;;;5003389;28;20065;-60
2023/01/13 12:02:15;;;;;;;35.20;27.15;;;231.20;2252.80;;;;;;5002698;28;20030;-60
2023/01/13 12:04:56;;;;;;;39.47;27.98;;;256.10;2252.80;;;;;;5005074;28;20458;-60
2023/01/13 12:07:47;;;;;;;79.63;58.80;;;256.10;2252.80;;;;;;5005329;28;20096;-60
2023/01/13 12:10:37;;;;;;;64.85;40.95;;;256.20;2252.80;;;;;;5004880;28;20513;-60
2023/01/13 12:13:22;;;;;;;49.40;33.70;;;256.30;2252.80;;;;;;5005237;28;20034;-60
2023/01/13 12:15:51;;;;;;;59.03;37.13;;;256.40;2252.80;;;;;;5003864;28;20022;-60
2023/01/13 12:18:19;;;;;;;38.28;25.30;;;256.40;2252.80;;;;;;5005133;28;20072;-60
2023/01/13 12:20:54;;;;;;;46.15;29.77;;;256.30;2252.80;;;;;;5005187;28;20042;-60
2023/01/13 12:23:35;;;;;;;61.67;35.63;;;256.40;2252.80;;;;;;5004914;28;20448;-60
2023/01/13 12:26:09;;;;;;;33.33;26.50;;;256.50;2252.80;;;;;;5005029;28;20040;-60
2023/01/13 12:28:58;;;;;;;55.88;36.83;;;256.40;2252.80;;;;;;5004983;28;20030;-59
2023/01/13 12:31:25;;;;;;;54.20;37.53;;;256.50;2252.80;;;;;;5004576;28;20022;-59
2023/01/13 12:34:31;;;;;;;46.92;34.78;;;256.50;2252.80;;;;;;5004680;28;20591;-59
2023/01/13 12:37:18;;;;;;;81.32;39.65;;;256.50;2252.80;;;;;;5070650;28;20029;-59
2023/01/13 12:40:14;;;;;;;58.78;37.03;;;256.40;2252.80;;;;;;5084201;28;20489;-60
2023/01/13 12:45:34;;;;;;;42.85;27.65;;;256.60;2252.80;;;;;;5085790;28;20031;-60
2023/01/13 12:48:00;;;;;;;37.03;24.63;;;256.70;2252.80;;;;;;5086065;28;20021;-60
2023/01/13 12:50:25;;;;;;;27.73;19.10;;;256.80;2252.80;;;;;;5085826;28;20517;-60
2023/01/13 12:53:17;;;;;;;34.53;23.00;;;256.90;2252.80;;;;;;5060420;28;20036;-61
2023/01/13 12:55:42;;;;;;;40.20;28.70;;;256.90;2252.80;;;;;;5063130;28;20020;-60
2023/01/13 12:58:08;;;;;;;40.45;27.33;;;256.80;2252.80;;;;;;5062940;28;20124;-60
2023/01/13 13:00:40;;;;;;;40.20;29.85;;;256.70;2252.80;;;;;;5042851;28;20430;-60
2023/01/13 13:03:12;;;;;;;47.10;31.02;;;256.90;2252.80;;;;;;5062202;28;20025;-59
2023/01/13 13:05:49;;;;;;;45.95;29.70;;;256.90;2252.80;;;;;;5063071;28;20091;-60
2023/01/13 13:08:23;;;;;;;44.45;30.00;;;281.60;2278.40;;;;;;5063489;28;20024;-60